Time;durP1;ratioP1;P1;durP2;ratioP2;P2;SDS_P1;SDS_P2;PMS_P1;PMS_P2;Temp;Humidity;BMP_temperature;BMP_pressure;BME280_temperature;BME280_humidity;BME280_pressure;Samples;Min_cycle;Max_cycle;Signal;HPM_P1;HPM_P2
2021/12/20 00:01:45;;;;;;;676.38;342.33;;;-0.70;99.90;;;;;;5114999;28;20527;-49
2021/12/20 00:04:10;;;;;;;653.50;321.52;;;-0.60;99.90;;;;;;5114997;28;20028;-49
2021/12/20 00:06:37;;;;;;;638.00;317.40;;;-0.60;99.90;;;;;;5114795;28;20084;-49
2021/12/20 00:09:03;;;;;;;727.58;372.67;;;-0.50;99.90;;;;;;5114781;28;20026;-49
2021/12/20 00:11:29;;;;;;;784.60;402.63;;;-0.50;99.90;;;;;;5113468;28;20431;-49
2021/12/20 00:13:55;;;;;;;837.03;436.40;;;-0.50;99.90;;;;;;5094233;28;20032;-49
2021/12/20 00:16:21;;;;;;;830.72;421.80;;;-0.50;99.90;;;;;;5094474;28;20099;-49
2021/12/20 00:18:47;;;;;;;722.70;365.25;;;-0.50;99.90;;;;;;5112872;28;20027;-49
2021/12/20 00:21:13;;;;;;;682.17;333.55;;;-0.50;99.90;;;;;;5114677;28;20027;-49
2021/12/20 00:23:39;;;;;;;676.03;343.23;;;-0.50;99.90;;;;;;5114646;28;20119;-49
2021/12/20 00:26:06;;;;;;;651.63;322.52;;;-0.40;99.90;;;;;;5114701;28;20484;-49
2021/12/20 00:28:32;;;;;;;661.33;327.90;;;-0.50;99.90;;;;;;5114479;28;20030;-49
2021/12/20 00:30:58;;;;;;;694.17;339.70;;;-0.50;99.90;;;;;;5114791;28;20024;-49
2021/12/20 00:33:28;;;;;;;700.67;347.98;;;-0.50;99.90;;;;;;5114697;28;20415;-49
2021/12/20 00:35:54;;;;;;;705.83;356.60;;;-0.50;99.90;;;;;;5114515;28;20376;-49
2021/12/20 00:41:05;;;;;;;594.13;285.13;;;-0.50;99.90;;;;;;5114508;28;20028;-49
2021/12/20 00:43:31;;;;;;;705.58;343.42;;;-0.60;99.90;;;;;;5114379;28;20020;-49
2021/12/20 00:45:56;;;;;;;709.50;351.70;;;-0.70;99.90;;;;;;5114571;28;20050;-49
2021/12/20 00:48:22;;;;;;;718.42;357.60;;;-0.50;99.90;;;;;;5115864;28;20118;-49
2021/12/20 00:50:48;;;;;;;684.13;333.73;;;-0.60;99.90;;;;;;5118231;28;20027;-49
2021/12/20 00:53:15;;;;;;;725.08;360.23;;;-0.50;99.90;;;;;;5118219;28;20063;-49
2021/12/20 00:55:41;;;;;;;716.47;360.80;;;-0.40;99.90;;;;;;5118160;28;20020;-49
2021/12/20 00:58:07;;;;;;;696.70;347.00;;;-0.40;99.90;;;;;;5118066;28;20042;-49
2021/12/20 01:00:37;;;;;;;691.63;338.52;;;-0.30;99.90;;;;;;5118333;28;20023;-49
2021/12/20 01:03:05;;;;;;;639.65;310.13;;;-0.40;99.90;;;;;;5118025;28;20032;-49
2021/12/20 01:05:31;;;;;;;615.80;292.58;;;-0.50;99.90;;;;;;5118287;28;20051;-49
2021/12/20 01:08:00;;;;;;;617.83;302.33;;;-0.40;99.90;;;;;;5117948;28;20027;-49
2021/12/20 01:10:29;;;;;;;658.28;318.13;;;-0.40;99.90;;;;;;5117952;28;20016;-49
2021/12/20 01:12:58;;;;;;;629.88;308.02;;;-0.50;99.90;;;;;;5104720;28;20035;-49
2021/12/20 01:15:32;;;;;;;626.40;300.88;;;-0.40;99.90;;;;;;5097545;28;20055;-49
2021/12/20 01:17:59;;;;;;;602.22;287.63;;;-0.40;99.90;;;;;;5108925;28;20426;-49
2021/12/20 01:20:25;;;;;;;591.20;287.02;;;-0.50;99.90;;;;;;5117801;28;20023;-49
2021/12/20 01:22:52;;;;;;;581.80;275.83;;;-0.60;99.90;;;;;;5117664;28;20381;-49
2021/12/20 01:25:19;;;;;;;580.35;269.92;;;-0.60;99.90;;;;;;5117641;28;20515;-49
2021/12/20 01:27:46;;;;;;;581.85;277.20;;;-0.60;99.90;;;;;;5117561;28;20034;-49
2021/12/20 01:30:14;;;;;;;595.25;283.88;;;-0.60;99.90;;;;;;5117866;28;20053;-48
2021/12/20 01:32:42;;;;;;;550.40;258.52;;;-0.50;99.90;;;;;;5117418;28;20036;-49
2021/12/20 01:35:09;;;;;;;539.20;246.68;;;-0.60;99.90;;;;;;5117618;28;20030;-49
2021/12/20 01:37:35;;;;;;;619.03;297.90;;;-0.60;99.90;;;;;;5117579;28;20020;-49
2021/12/20 01:40:03;;;;;;;606.78;289.00;;;-0.60;99.90;;;;;;5117456;28;20088;-48
2021/12/20 01:42:32;;;;;;;584.72;282.83;;;-0.60;99.90;;;;;;5117322;28;20485;-49
2021/12/20 01:44:58;;;;;;;555.83;262.25;;;-0.60;99.90;;;;;;5117354;28;20082;-49
2021/12/20 01:47:32;;;;;;;555.10;262.00;;;-0.70;99.90;;;;;;5117286;28;20057;-49
2021/12/20 01:50:05;;;;;;;533.28;242.32;;;-0.80;99.90;;;;;;5117116;28;20361;-49
2021/12/20 01:52:40;;;;;;;537.25;248.27;;;-0.70;99.90;;;;;;5117098;28;20066;-49
2021/12/20 01:55:08;;;;;;;532.05;242.73;;;-0.70;99.90;;;;;;5116921;28;20055;-49
2021/12/20 01:57:34;;;;;;;533.00;248.15;;;-0.70;99.90;;;;;;5117312;28;20355;-49
2021/12/20 02:00:01;;;;;;;523.38;246.88;;;-0.60;99.90;;;;;;5097898;28;20039;-48
2021/12/20 02:02:26;;;;;;;560.15;267.95;;;-0.70;99.90;;;;;;5116971;28;20047;-48
2021/12/20 02:05:00;;;;;;;525.03;245.70;;;-0.60;99.90;;;;;;5116978;28;20040;-49
2021/12/20 02:07:47;;;;;;;525.08;245.77;;;-0.50;99.90;;;;;;5116757;28;20485;-49
2021/12/20 02:10:13;;;;;;;550.17;256.95;;;-0.50;99.90;;;;;;5116950;28;20031;-49
2021/12/20 02:12:39;;;;;;;532.13;241.48;;;-0.50;99.90;;;;;;5105631;28;20055;-49
2021/12/20 02:15:06;;;;;;;534.10;249.55;;;-0.40;99.90;;;;;;5096352;28;20065;-49
2021/12/20 02:17:32;;;;;;;535.33;253.82;;;-0.30;99.90;;;;;;5104156;28;20089;-49
2021/12/20 02:19:59;;;;;;;526.05;247.85;;;-0.20;99.90;;;;;;5116749;28;20039;-48
2021/12/20 02:22:25;;;;;;;543.22;255.93;;;-0.10;99.90;;;;;;5116330;28;20081;-49
2021/12/20 02:24:51;;;;;;;515.97;237.18;;;-0.10;99.90;;;;;;5116655;28;20032;-49
2021/12/20 02:27:17;;;;;;;501.05;233.10;;;-0.10;99.90;;;;;;5116490;28;20042;-49
2021/12/20 02:29:59;;;;;;;513.22;238.60;;;-0.10;99.90;;;;;;5116379;28;20028;-49
2021/12/20 02:37:55;;;;;;;469.77;201.65;;;0.20;99.90;;;;;;5116417;28;20100;-49
2021/12/20 02:40:22;;;;;;;466.08;213.38;;;0.30;99.90;;;;;;5116383;28;20384;-49
2021/12/20 02:42:49;;;;;;;461.50;205.20;;;0.30;99.90;;;;;;5116524;28;20032;-49
2021/12/20 02:45:16;;;;;;;537.35;234.57;;;0.30;99.90;;;;;;5116091;28;20500;-49
2021/12/20 02:47:44;;;;;;;604.60;271.60;;;0.30;99.90;;;;;;5116472;28;20437;-49
2021/12/20 02:50:12;;;;;;;489.55;216.18;;;0.30;99.90;;;;;;5115653;28;20124;-49
2021/12/20 02:52:39;;;;;;;492.40;220.68;;;0.30;99.90;;;;;;5115888;28;20118;-49
2021/12/20 02:55:07;;;;;;;484.67;222.27;;;0.30;99.90;;;;;;5116032;28;20073;-49
2021/12/20 02:57:38;;;;;;;534.25;238.43;;;0.30;99.90;;;;;;5116046;28;20056;-49
2021/12/20 03:00:06;;;;;;;771.38;332.33;;;0.40;99.90;;;;;;5116071;28;20028;-49
2021/12/20 03:02:32;;;;;;;704.70;303.58;;;0.50;99.90;;;;;;5115838;28;20363;-49
2021/12/20 03:04:58;;;;;;;765.15;331.38;;;0.40;99.90;;;;;;5115607;28;20027;-49
2021/12/20 03:07:26;;;;;;;698.28;303.42;;;0.50;99.90;;;;;;5115856;28;20032;-49
2021/12/20 03:09:59;;;;;;;616.20;276.73;;;0.50;99.90;;;;;;5115639;28;20043;-49
2021/12/20 03:12:28;;;;;;;547.53;244.48;;;0.60;99.90;;;;;;5105839;28;20449;-49
2021/12/20 03:15:00;;;;;;;757.80;328.95;;;0.60;99.90;;;;;;5095136;28;20028;-49
2021/12/20 03:17:26;;;;;;;678.25;298.23;;;0.70;99.90;;;;;;5095170;28;20058;-49
2021/12/20 03:19:52;;;;;;;621.53;276.85;;;0.80;99.90;;;;;;5095068;28;20039;-49
2021/12/20 03:22:18;;;;;;;524.70;236.52;;;0.90;99.90;;;;;;5095165;28;20028;-49
2021/12/20 03:24:44;;;;;;;542.72;241.10;;;1.00;99.90;;;;;;5094986;28;20023;-49
2021/12/20 03:27:10;;;;;;;549.85;249.18;;;0.90;99.90;;;;;;5094826;28;20032;-48
2021/12/20 03:29:36;;;;;;;505.70;230.13;;;0.80;99.90;;;;;;5094998;28;20389;-49
2021/12/20 03:32:03;;;;;;;505.98;227.40;;;0.80;99.90;;;;;;5094787;28;20024;-49
2021/12/20 03:34:28;;;;;;;493.83;221.68;;;0.90;99.90;;;;;;5094907;28;20032;-49
2021/12/20 03:36:54;;;;;;;512.88;228.05;;;0.80;99.90;;;;;;5095047;28;20020;-49
2021/12/20 03:39:20;;;;;;;562.42;244.93;;;0.90;99.90;;;;;;5094790;28;20030;-49
2021/12/20 03:41:47;;;;;;;522.60;229.60;;;0.90;99.90;;;;;;5095125;28;20099;-49
2021/12/20 03:44:13;;;;;;;480.55;217.30;;;0.90;99.90;;;;;;5094784;28;20083;-49
2021/12/20 03:46:39;;;;;;;473.10;213.65;;;0.80;99.90;;;;;;5094514;28;20089;-49
2021/12/20 03:49:06;;;;;;;478.90;212.32;;;0.90;99.90;;;;;;5094553;28;20031;-49
2021/12/20 03:51:33;;;;;;;443.60;193.63;;;0.90;99.90;;;;;;5094725;28;20067;-49
2021/12/20 03:53:59;;;;;;;453.10;199.60;;;1.00;99.90;;;;;;5094405;28;20048;-49
2021/12/20 03:56:25;;;;;;;476.02;209.88;;;0.90;99.90;;;;;;5094611;28;20042;-49
2021/12/20 03:58:51;;;;;;;489.30;224.98;;;0.90;99.90;;;;;;5094620;28;20420;-49
2021/12/20 04:01:17;;;;;;;481.55;223.48;;;1.00;99.90;;;;;;5094685;28;20068;-49
2021/12/20 04:03:43;;;;;;;476.33;222.38;;;0.90;99.90;;;;;;5094653;28;20107;-49
2021/12/20 04:06:11;;;;;;;553.92;246.75;;;1.00;99.90;;;;;;5094499;28;20127;-49
2021/12/20 04:08:38;;;;;;;627.75;282.98;;;1.00;99.90;;;;;;5094191;28;20389;-49
2021/12/20 04:11:05;;;;;;;619.38;270.88;;;0.90;99.90;;;;;;5094552;28;20103;-49
2021/12/20 04:13:31;;;;;;;605.75;274.42;;;0.90;99.90;;;;;;5094194;28;20028;-49
2021/12/20 04:15:59;;;;;;;581.95;254.38;;;0.90;99.90;;;;;;5094266;28;20027;-49
2021/12/20 04:18:26;;;;;;;601.65;266.85;;;1.10;99.90;;;;;;5109464;28;20428;-49
2021/12/20 04:20:52;;;;;;;654.72;284.65;;;1.10;99.90;;;;;;5114745;28;20034;-49
2021/12/20 04:23:18;;;;;;;532.42;231.35;;;1.00;99.90;;;;;;5116108;28;20049;-49
2021/12/20 04:25:45;;;;;;;535.72;234.60;;;1.00;99.90;;;;;;5119003;28;20388;-49
2021/12/20 04:28:10;;;;;;;491.23;214.88;;;0.90;99.90;;;;;;5118661;28;20067;-49
2021/12/20 04:30:37;;;;;;;464.27;204.13;;;0.90;99.90;;;;;;5118704;28;20020;-49
2021/12/20 04:33:03;;;;;;;453.65;203.55;;;1.00;99.90;;;;;;5118904;28;20103;-49
2021/12/20 04:35:30;;;;;;;444.58;197.23;;;0.90;99.90;;;;;;5118756;28;20059;-49
2021/12/20 04:37:58;;;;;;;428.48;192.82;;;0.80;99.90;;;;;;5118560;28;20423;-49
2021/12/20 04:40:24;;;;;;;449.58;203.85;;;0.80;99.90;;;;;;5118680;28;20026;-49
2021/12/20 04:42:55;;;;;;;510.80;217.55;;;0.70;99.90;;;;;;5118397;28;20487;-49
2021/12/20 04:45:22;;;;;;;486.75;205.15;;;0.60;99.90;;;;;;5118492;28;20048;-49
2021/12/20 04:47:48;;;;;;;467.70;198.98;;;0.60;99.90;;;;;;5118644;28;20023;-49
2021/12/20 04:50:15;;;;;;;455.63;195.48;;;0.50;99.90;;;;;;5118347;28;20028;-48
2021/12/20 04:52:41;;;;;;;469.70;200.10;;;0.50;99.90;;;;;;5118177;28;20051;-49
2021/12/20 04:55:09;;;;;;;461.45;199.23;;;0.50;99.90;;;;;;5118268;28;20031;-49
2021/12/20 04:57:35;;;;;;;435.17;187.43;;;0.50;99.90;;;;;;5118548;28;20145;-49
2021/12/20 05:00:04;;;;;;;471.15;201.23;;;0.60;99.90;;;;;;5118231;28;20457;-49
2021/12/20 05:02:30;;;;;;;449.10;194.65;;;0.60;99.90;;;;;;5118291;28;20020;-49
2021/12/20 05:04:56;;;;;;;462.17;199.23;;;0.60;99.90;;;;;;5118133;28;20053;-49
2021/12/20 05:07:25;;;;;;;477.10;206.60;;;0.60;99.90;;;;;;5118187;28;20651;-49
2021/12/20 05:09:57;;;;;;;478.33;201.55;;;0.50;99.90;;;;;;5117873;28;20034;-49
2021/12/20 05:12:23;;;;;;;448.92;190.93;;;0.60;99.90;;;;;;5109301;28;20020;-49
2021/12/20 05:14:48;;;;;;;479.15;209.82;;;0.70;99.90;;;;;;5097556;28;20035;-49
2021/12/20 05:17:14;;;;;;;464.73;200.48;;;0.60;99.90;;;;;;5102721;28;20373;-49
2021/12/20 05:19:44;;;;;;;479.23;216.32;;;0.50;99.90;;;;;;5117867;28;20015;-49
2021/12/20 05:22:11;;;;;;;498.90;233.02;;;0.50;99.90;;;;;;5117777;28;20485;-49
2021/12/20 05:24:40;;;;;;;485.13;224.52;;;0.50;99.90;;;;;;5117800;28;20031;-49
2021/12/20 05:27:06;;;;;;;473.98;216.30;;;0.60;99.90;;;;;;5117604;28;20055;-49
2021/12/20 05:29:33;;;;;;;436.60;196.07;;;0.70;99.90;;;;;;5117801;28;20028;-49
2021/12/20 05:32:02;;;;;;;475.90;203.18;;;0.70;99.90;;;;;;5117562;28;20123;-49
2021/12/20 05:34:28;;;;;;;490.85;211.55;;;0.80;99.90;;;;;;5116428;28;20051;-49
2021/12/20 05:36:54;;;;;;;453.27;196.00;;;0.90;99.90;;;;;;5117392;28;20482;-49
2021/12/20 05:39:20;;;;;;;437.48;188.30;;;0.80;99.90;;;;;;5099235;28;20032;-49
2021/12/20 05:41:46;;;;;;;609.22;258.15;;;0.90;99.90;;;;;;5117163;28;20038;-49
2021/12/20 05:44:12;;;;;;;641.80;279.42;;;0.90;99.90;;;;;;5117263;28;20059;-49
2021/12/20 05:46:37;;;;;;;630.72;263.60;;;1.00;99.90;;;;;;5117347;28;20106;-49
2021/12/20 05:49:03;;;;;;;578.05;244.80;;;1.10;99.90;;;;;;5117086;28;20545;-49
2021/12/20 05:51:30;;;;;;;537.33;224.98;;;1.10;99.90;;;;;;5117308;28;20023;-49
2021/12/20 05:53:55;;;;;;;541.42;229.82;;;1.20;99.90;;;;;;5116953;28;20047;-49
2021/12/20 05:56:21;;;;;;;519.50;217.73;;;1.10;99.90;;;;;;5117004;28;20027;-49
2021/12/20 05:58:47;;;;;;;527.30;216.30;;;1.10;99.90;;;;;;5117212;28;20538;-49
2021/12/20 06:01:13;;;;;;;556.58;235.38;;;1.00;99.90;;;;;;5116985;28;20059;-49
2021/12/20 06:03:40;;;;;;;564.55;232.75;;;1.10;99.90;;;;;;5116839;28;20027;-49
2021/12/20 06:06:08;;;;;;;588.45;237.35;;;1.10;99.90;;;;;;5116918;28;20110;-49
2021/12/20 06:08:34;;;;;;;592.85;239.15;;;1.10;99.90;;;;;;5116763;28;20034;-49
2021/12/20 06:11:00;;;;;;;595.85;242.55;;;1.20;99.90;;;;;;5116770;28;20027;-49
2021/12/20 06:13:27;;;;;;;469.23;194.55;;;1.30;99.90;;;;;;5099136;28;20039;-49
2021/12/20 06:15:53;;;;;;;387.75;167.10;;;1.30;99.90;;;;;;5096767;28;20394;-49
2021/12/20 06:18:19;;;;;;;374.33;161.60;;;1.20;99.90;;;;;;5096024;28;20036;-49
2021/12/20 06:20:45;;;;;;;391.52;172.40;;;1.30;99.90;;;;;;5096419;28;20031;-49
2021/12/20 06:23:12;;;;;;;364.33;158.27;;;1.20;99.90;;;;;;5095900;28;20496;-49
2021/12/20 06:25:38;;;;;;;398.45;175.13;;;1.20;99.90;;;;;;5095850;28;20107;-49
2021/12/20 06:28:04;;;;;;;467.30;198.02;;;1.30;99.90;;;;;;5087385;28;20043;-49
2021/12/20 06:30:30;;;;;;;494.10;213.00;;;1.40;99.90;;;;;;5080115;28;20036;-49
2021/12/20 06:32:56;;;;;;;422.67;184.98;;;1.40;99.90;;;;;;5096703;28;20028;-49
2021/12/20 06:35:22;;;;;;;391.98;179.57;;;1.30;99.90;;;;;;5090412;28;20863;-48
2021/12/20 06:37:58;;;;;;;356.88;162.52;;;1.40;99.90;;;;;;5072474;28;20069;-48
2021/12/20 06:40:25;;;;;;;254.35;117.57;;;1.40;99.90;;;;;;5086744;28;20024;-49
2021/12/20 06:42:51;;;;;;;211.98;100.20;;;1.40;99.90;;;;;;5088562;28;20043;-50
2021/12/20 06:45:17;;;;;;;205.32;99.93;;;1.30;99.90;;;;;;5093570;28;20386;-50
2021/12/20 06:47:44;;;;;;;193.43;96.70;;;1.30;99.90;;;;;;5091507;28;20023;-51
2021/12/20 06:50:10;;;;;;;187.77;97.75;;;1.40;99.90;;;;;;5089887;28;20036;-51
2021/12/20 06:52:36;;;;;;;176.35;91.15;;;1.40;99.90;;;;;;5088138;28;20043;-48
2021/12/20 06:55:02;;;;;;;216.48;108.03;;;1.40;99.90;;;;;;5091071;28;20028;-49
2021/12/20 06:57:28;;;;;;;218.85;112.55;;;1.40;99.90;;;;;;5090753;28;20020;-49
2021/12/20 06:59:54;;;;;;;228.48;111.70;;;1.40;99.90;;;;;;5090287;28;20162;-50
2021/12/20 07:02:20;;;;;;;338.25;163.00;;;1.40;99.90;;;;;;5093002;28;20465;-49
2021/12/20 07:04:47;;;;;;;263.13;126.70;;;1.40;99.90;;;;;;5086790;28;20474;-49
2021/12/20 07:07:14;;;;;;;290.90;144.63;;;1.40;99.90;;;;;;5081890;28;20025;-50
2021/12/20 07:13:12;;;;;;;345.58;166.10;;;1.40;99.90;;;;;;5088692;28;20115;-50
2021/12/20 07:15:38;;;;;;;445.98;200.13;;;1.20;99.90;;;;;;5092670;28;20789;-50
2021/12/20 07:18:05;;;;;;;455.15;211.20;;;1.30;99.90;;;;;;5085927;28;20037;-50
2021/12/20 07:20:31;;;;;;;406.52;194.60;;;1.30;99.90;;;;;;5086736;28;20070;-50
2021/12/20 07:22:57;;;;;;;403.63;189.80;;;1.50;99.90;;;;;;5079244;28;20039;-50
2021/12/20 07:25:23;;;;;;;397.80;186.30;;;1.50;99.90;;;;;;5087100;28;20024;-50
2021/12/20 07:27:51;;;;;;;435.70;206.18;;;1.60;99.90;;;;;;5092150;28;20020;-50
2021/12/20 07:30:18;;;;;;;447.17;208.65;;;1.70;99.90;;;;;;5090988;28;20024;-50
2021/12/20 07:32:44;;;;;;;510.38;242.00;;;1.70;99.90;;;;;;5093677;28;20335;-50
2021/12/20 07:35:12;;;;;;;491.52;234.13;;;1.90;99.90;;;;;;5094304;28;20081;-50
2021/12/20 07:37:38;;;;;;;413.42;199.40;;;2.00;99.90;;;;;;5089250;28;20370;-51
2021/12/20 07:40:07;;;;;;;424.15;201.27;;;2.10;99.90;;;;;;5094102;28;20028;-48
2021/12/20 07:42:33;;;;;;;462.02;225.88;;;2.20;99.90;;;;;;5094339;28;20024;-48
2021/12/20 07:44:59;;;;;;;394.02;192.05;;;2.20;99.90;;;;;;5094535;28;20032;-48
2021/12/20 07:47:25;;;;;;;545.67;266.70;;;2.10;99.90;;;;;;5094825;28;20370;-48
2021/12/20 07:49:51;;;;;;;441.00;208.95;;;2.10;99.90;;;;;;5103332;28;20039;-48
2021/12/20 07:52:17;;;;;;;483.00;232.75;;;3.10;99.90;;;;;;5086985;28;20045;-49
2021/12/20 07:54:43;;;;;;;464.60;224.50;;;4.10;99.90;;;;;;5088350;28;20035;-48
2021/12/20 07:57:09;;;;;;;483.23;237.88;;;5.10;99.90;;;;;;5093650;28;20024;-49
2021/12/20 07:59:35;;;;;;;478.77;236.68;;;6.20;99.90;;;;;;5093161;28;20111;-49
2021/12/20 08:02:01;;;;;;;447.38;221.15;;;7.30;99.90;;;;;;5092598;28;20099;-49
2021/12/20 08:04:27;;;;;;;468.75;225.82;;;8.60;99.90;;;;;;5094518;28;20477;-49
2021/12/20 08:06:53;;;;;;;470.55;225.15;;;9.60;99.90;;;;;;5094493;28;20028;-49
2021/12/20 08:09:19;;;;;;;470.25;230.27;;;10.20;99.90;;;;;;5094072;28;20032;-49
2021/12/20 08:11:48;;;;;;;436.63;211.02;;;10.30;98.60;;;;;;5092583;28;20450;-51
2021/12/20 08:14:14;;;;;;;447.20;225.30;;;9.40;99.80;;;;;;5096301;28;20019;-51
2021/12/20 08:16:40;;;;;;;414.45;200.23;;;8.60;99.90;;;;;;5093232;28;20047;-51
2021/12/20 08:19:10;;;;;;;411.42;202.90;;;8.80;99.90;;;;;;5085976;28;20103;-51
2021/12/20 08:21:36;;;;;;;410.35;202.57;;;8.80;99.90;;;;;;5091350;28;20037;-51
2021/12/20 08:24:03;;;;;;;419.17;202.27;;;7.60;99.90;;;;;;5095696;28;20028;-49
2021/12/20 08:26:29;;;;;;;448.52;228.80;;;6.90;99.90;;;;;;5084280;28;20110;-49
2021/12/20 08:28:54;;;;;;;425.08;212.35;;;5.90;99.90;;;;;;5089937;28;20116;-49
2021/12/20 08:31:21;;;;;;;436.98;213.60;;;5.60;99.90;;;;;;5086187;28;20558;-49
2021/12/20 08:33:47;;;;;;;423.25;215.90;;;5.10;99.90;;;;;;5079623;28;20063;-49
2021/12/20 08:36:13;;;;;;;404.75;202.25;;;5.00;99.90;;;;;;5090677;28;20024;-49
2021/12/20 08:38:40;;;;;;;405.48;190.32;;;5.10;99.90;;;;;;5093024;28;20036;-49
2021/12/20 08:41:07;;;;;;;389.23;188.35;;;4.90;99.90;;;;;;5094572;28;20458;-50
2021/12/20 08:43:36;;;;;;;369.42;182.93;;;4.80;99.90;;;;;;5090411;28;20051;-50
2021/12/20 08:46:02;;;;;;;368.98;179.82;;;4.90;99.90;;;;;;5091230;28;20433;-49
2021/12/20 08:48:30;;;;;;;355.77;175.27;;;5.30;99.90;;;;;;5094268;28;20024;-49
2021/12/20 08:50:58;;;;;;;345.23;167.93;;;5.40;99.90;;;;;;5089419;28;20082;-49
2021/12/20 08:53:24;;;;;;;335.60;164.45;;;5.80;99.90;;;;;;5081981;28;20516;-49
2021/12/20 08:55:50;;;;;;;339.58;168.45;;;5.90;99.90;;;;;;5090215;28;20219;-49
2021/12/20 08:58:16;;;;;;;332.52;163.60;;;5.50;99.90;;;;;;5088582;28;20078;-49
2021/12/20 09:00:45;;;;;;;329.08;166.38;;;5.60;99.90;;;;;;5074830;28;20036;-49
2021/12/20 09:03:11;;;;;;;336.65;162.70;;;5.70;99.90;;;;;;5085152;28;20028;-49
2021/12/20 09:05:37;;;;;;;305.63;157.38;;;6.30;99.90;;;;;;5089807;28;20043;-50
2021/12/20 09:08:06;;;;;;;301.58;149.35;;;7.00;99.90;;;;;;5091153;28;20024;-49
2021/12/20 09:10:33;;;;;;;297.45;149.45;;;7.80;99.90;;;;;;5105171;28;20066;-49
2021/12/20 09:12:59;;;;;;;301.08;146.35;;;8.10;99.90;;;;;;5099645;28;20020;-50
2021/12/20 09:15:26;;;;;;;285.27;141.10;;;8.60;99.90;;;;;;5086019;28;20020;-49
2021/12/20 09:17:53;;;;;;;281.50;142.82;;;8.60;99.90;;;;;;5094466;28;20127;-50
2021/12/20 09:20:22;;;;;;;279.83;141.90;;;8.60;99.90;;;;;;5082981;28;20039;-49
2021/12/20 09:22:51;;;;;;;272.50;137.02;;;8.80;99.90;;;;;;5089148;28;20027;-49
2021/12/20 09:25:26;;;;;;;256.25;130.45;;;9.10;99.90;;;;;;5088076;28;20024;-49
2021/12/20 09:27:53;;;;;;;243.95;120.72;;;9.30;99.90;;;;;;5081390;28;20020;-49
2021/12/20 09:30:22;;;;;;;241.30;120.93;;;9.10;99.90;;;;;;5088009;28;20058;-50
2021/12/20 09:32:48;;;;;;;216.13;102.10;;;9.10;99.90;;;;;;5095324;28;20017;-50
2021/12/20 09:35:14;;;;;;;204.10;104.57;;;8.90;99.90;;;;;;5095667;28;20440;-50
2021/12/20 09:37:41;;;;;;;207.80;99.82;;;8.70;99.90;;;;;;5099480;28;20116;-50
2021/12/20 09:40:13;;;;;;;124.45;58.90;;;8.80;99.90;;;;;;5107813;28;20028;-50
2021/12/20 09:43:02;;;;;;;111.43;42.22;;;8.60;99.90;;;;;;5096354;28;20613;-50
2021/12/20 09:45:28;;;;;;;62.47;27.98;;;8.30;99.90;;;;;;5084498;28;20351;-50
2021/12/20 09:47:54;;;;;;;78.13;30.55;;;8.00;99.90;;;;;;5085498;28;20118;-50
2021/12/20 09:50:20;;;;;;;61.35;26.67;;;7.70;99.90;;;;;;5086023;28;20047;-49
2021/12/20 09:52:47;;;;;;;60.15;29.38;;;7.50;99.90;;;;;;5089068;28;20049;-50
2021/12/20 09:55:15;;;;;;;60.95;30.58;;;7.30;99.90;;;;;;5097206;28;20016;-50
2021/12/20 09:57:43;;;;;;;76.75;33.83;;;7.10;99.90;;;;;;5087180;28;20067;-50
2021/12/20 10:00:12;;;;;;;61.47;30.75;;;7.10;99.90;;;;;;5092859;28;20028;-50
2021/12/20 10:02:45;;;;;;;60.08;31.20;;;6.90;99.90;;;;;;5091710;28;20033;-50
2021/12/20 10:05:12;;;;;;;76.53;33.80;;;6.80;99.90;;;;;;5090748;28;20036;-50
2021/12/20 10:07:39;;;;;;;57.88;29.10;;;6.90;99.90;;;;;;5091672;28;20040;-50
2021/12/20 10:10:07;;;;;;;64.93;30.08;;;7.40;99.90;;;;;;5085773;28;20397;-50
2021/12/20 10:12:33;;;;;;;79.43;33.15;;;7.70;99.90;;;;;;5093350;28;20031;-50
2021/12/20 10:15:12;;;;;;;75.35;32.83;;;8.10;99.90;;;;;;5095612;28;20051;-51
2021/12/20 10:17:52;;;;;;;66.97;30.67;;;9.30;98.20;;;;;;5087776;28;20095;-51
2021/12/20 10:20:27;;;;;;;64.50;27.00;;;9.60;97.80;;;;;;5078776;28;20129;-51
2021/12/20 10:23:07;;;;;;;36.03;17.02;;;10.40;95.20;;;;;;5082821;28;20382;-51
2021/12/20 10:25:34;;;;;;;38.75;15.98;;;10.40;92.10;;;;;;5095895;28;20359;-50
2021/12/20 10:28:08;;;;;;;51.08;18.90;;;10.90;94.10;;;;;;5089803;28;20111;-50
2021/12/20 10:30:38;;;;;;;50.88;18.70;;;11.60;88.10;;;;;;5088434;28;20115;-50
2021/12/20 10:33:07;;;;;;;41.45;21.15;;;11.40;90.10;;;;;;5082660;28;20036;-51
2021/12/20 10:35:41;;;;;;;52.00;23.42;;;10.90;88.40;;;;;;5090513;28;20414;-50
2021/12/20 10:38:22;;;;;;;48.25;21.02;;;11.10;90.60;;;;;;5083862;28;20107;-50
2021/12/20 10:40:51;;;;;;;38.15;19.08;;;11.10;89.20;;;;;;5095688;28;20103;-50
2021/12/20 10:43:20;;;;;;;40.92;17.88;;;11.70;86.80;;;;;;5095307;28;20132;-51
2021/12/20 10:45:46;;;;;;;37.97;17.88;;;11.50;80.30;;;;;;5093555;28;20016;-50
2021/12/20 10:48:12;;;;;;;49.50;16.75;;;11.60;77.70;;;;;;5082081;28;20489;-51
2021/12/20 10:50:43;;;;;;;45.72;19.90;;;11.90;76.20;;;;;;5090899;28;20468;-50
2021/12/20 10:53:20;;;;;;;56.58;24.02;;;11.70;77.30;;;;;;5086869;28;20054;-51
2021/12/20 10:56:07;;;;;;;62.90;24.75;;;11.80;75.50;;;;;;5094534;28;20039;-51
2021/12/20 10:58:36;;;;;;;174.13;49.72;;;11.80;77.00;;;;;;5092007;28;20102;-50
2021/12/20 11:01:13;;;;;;;42.95;17.63;;;12.20;70.70;;;;;;5084534;28;20021;-51
2021/12/20 11:03:41;;;;;;;35.53;16.02;;;12.30;67.80;;;;;;5074848;28;20490;-51
2021/12/20 11:11:27;;;;;;;18.45;9.52;;;13.10;59.50;;;;;;5091076;28;20042;-51
2021/12/20 11:13:55;;;;;;;22.08;10.23;;;13.40;58.60;;;;;;5085548;28;20029;-51
2021/12/20 11:16:30;;;;;;;17.55;9.23;;;13.40;56.00;;;;;;5070677;28;20031;-51
2021/12/20 11:19:07;;;;;;;23.98;10.60;;;12.90;57.60;;;;;;5092840;28;20024;-51
2021/12/20 11:21:40;;;;;;;24.95;11.05;;;12.50;59.90;;;;;;5088854;28;20113;-51
2021/12/20 11:24:15;;;;;;;28.30;11.95;;;12.20;60.30;;;;;;5090293;28;20035;-51
2021/12/20 11:26:42;;;;;;;32.33;11.27;;;12.30;61.40;;;;;;5088516;28;20055;-51
2021/12/20 11:29:09;;;;;;;20.33;10.75;;;12.60;59.40;;;;;;5086714;28;20044;-51
2021/12/20 11:31:37;;;;;;;26.83;10.20;;;12.40;60.00;;;;;;5084031;28;20025;-51
2021/12/20 11:34:04;;;;;;;24.92;7.85;;;12.50;59.50;;;;;;5082026;28;20155;-51
2021/12/20 11:36:32;;;;;;;15.30;8.65;;;12.40;58.20;;;;;;5091090;28;20032;-51
2021/12/20 11:38:58;;;;;;;14.73;7.43;;;12.50;59.60;;;;;;5080520;28;20106;-51
2021/12/20 11:41:28;;;;;;;21.67;8.70;;;12.80;56.80;;;;;;5085876;28;20063;-51
2021/12/20 11:43:55;;;;;;;14.82;6.25;;;12.80;58.10;;;;;;5091986;28;20491;-51
2021/12/20 11:46:26;;;;;;;22.08;6.22;;;12.70;57.50;;;;;;5086616;28;20067;-51
2021/12/20 11:48:52;;;;;;;;;;;12.90;57.30;;;;;;5094525;28;20561;-51
2021/12/20 11:51:18;;;;;;;21.55;6.22;;;13.00;55.60;;;;;;5089758;28;19939;-51
2021/12/20 11:53:45;;;;;;;21.02;8.93;;;12.60;56.20;;;;;;5086479;28;20102;-51
2021/12/20 11:56:11;;;;;;;26.05;10.77;;;12.80;56.50;;;;;;5077402;28;20025;-51
2021/12/20 11:58:44;;;;;;;26.67;11.05;;;12.80;57.50;;;;;;5088191;28;20024;-51
2021/12/20 12:01:19;;;;;;;19.65;8.70;;;12.90;58.00;;;;;;5086696;28;20029;-51
2021/12/20 12:03:57;;;;;;;16.35;7.40;;;13.00;57.20;;;;;;5083068;28;20028;-52
2021/12/20 12:06:29;;;;;;;16.20;6.30;;;12.90;56.90;;;;;;5088704;28;20039;-51
2021/12/20 12:08:59;;;;;;;13.43;6.38;;;13.10;55.60;;;;;;5093142;28;20032;-51
2021/12/20 12:11:25;;;;;;;17.45;8.65;;;12.90;54.50;;;;;;5089527;28;20032;-52
2021/12/20 12:14:02;;;;;;;18.77;8.52;;;12.90;55.10;;;;;;5089545;28;20024;-51
2021/12/20 12:17:01;;;;;;;12.25;6.70;;;13.10;55.90;;;;;;5086157;28;20022;-51
2021/12/20 12:19:37;;;;;;;10.13;6.55;;;13.10;54.70;;;;;;5072657;28;20072;-51
2021/12/20 12:22:03;;;;;;;18.15;8.52;;;12.70;55.90;;;;;;5083484;28;20455;-51
2021/12/20 12:24:50;;;;;;;17.48;8.38;;;13.00;56.80;;;;;;5088028;28;20326;-51
2021/12/20 12:27:25;;;;;;;16.38;8.25;;;14.00;56.00;;;;;;5087255;28;20035;-51
2021/12/20 12:30:16;;;;;;;13.45;7.45;;;13.40;53.00;;;;;;5088301;28;20024;-51
2021/12/20 12:32:47;;;;;;;23.92;7.60;;;12.90;53.10;;;;;;5088162;28;20099;-51
2021/12/20 12:35:50;;;;;;;12.13;6.57;;;13.50;54.30;;;;;;5088084;28;20385;-51
2021/12/20 12:38:17;;;;;;;22.73;8.32;;;13.40;51.70;;;;;;5088890;28;20105;-51
2021/12/20 12:40:46;;;;;;;21.00;8.55;;;12.80;53.10;;;;;;5088330;28;20387;-51